createdAt,value
2019-04-11T00:01:08.027Z,75.40
2019-04-11T00:03:45.729Z,75.80
2019-04-11T00:06:23.470Z,76.20
2019-04-11T00:09:00.703Z,76.10
2019-04-11T00:11:37.755Z,76.20
2019-04-11T00:14:15.821Z,76.40
2019-04-11T00:16:53.369Z,76.70
2019-04-11T00:19:29.787Z,76.70
2019-04-11T00:22:07.300Z,76.80
2019-04-11T00:24:45.182Z,76.60
2019-04-11T00:27:22.274Z,76.40
2019-04-11T00:29:59.779Z,76.20
2019-04-11T00:32:37.971Z,76.10
2019-04-11T00:35:15.471Z,75.60
2019-04-11T00:37:52.262Z,76.00
2019-04-11T00:40:29.753Z,75.90
2019-04-11T00:43:07.415Z,75.90
2019-04-11T00:45:45.623Z,75.70
2019-04-11T00:48:22.306Z,75.50
2019-04-11T00:50:59.836Z,75.50
2019-04-11T00:53:38.308Z,75.50
2019-04-11T00:56:15.790Z,75.50
2019-04-11T00:58:52.316Z,75.30
2019-04-11T01:01:29.845Z,75.30
2019-04-11T01:04:07.643Z,75.40
2019-04-11T01:06:44.835Z,75.40
2019-04-11T01:09:22.331Z,75.30
2019-04-11T01:12:00.453Z,75.50
2019-04-11T01:14:38.576Z,75.50
2019-04-11T01:17:14.954Z,75.50
2019-04-11T01:19:53.213Z,75.40
2019-04-11T01:22:29.914Z,75.20
2019-04-11T01:25:08.402Z,75.80
2019-04-11T01:27:45.900Z,74.90
2019-04-11T01:30:25.136Z,74.70
2019-04-11T01:33:02.666Z,74.60
2019-04-11T01:35:40.181Z,74.60
2019-04-11T01:38:17.696Z,74.90
2019-04-11T01:40:56.160Z,75.40
2019-04-11T01:43:32.695Z,75.00
2019-04-11T01:46:10.187Z,75.10
2019-04-11T01:49:19.781Z,75.30
2019-04-11T01:51:58.186Z,75.50
2019-04-11T01:54:35.478Z,76.20
2019-04-11T01:57:12.238Z,77.10
2019-04-11T01:59:49.729Z,77.20
2019-04-11T02:02:48.658Z,77.00
2019-04-11T02:05:27.922Z,76.70
2019-04-11T02:08:05.436Z,76.70
2019-04-11T02:10:43.248Z,76.50
2019-04-11T02:13:20.573Z,76.80
2019-04-11T02:15:58.866Z,76.80
2019-04-11T02:18:35.573Z,76.70
2019-04-11T02:21:13.618Z,76.80
2019-04-11T02:23:59.820Z,76.90
2019-04-11T02:26:37.715Z,77.10
2019-04-11T02:29:14.866Z,77.40
2019-04-11T02:31:52.917Z,77.60
2019-04-11T02:34:29.885Z,77.90
2019-04-11T02:37:09.149Z,78.30
2019-04-11T02:39:44.834Z,78.60
2019-04-11T02:42:23.367Z,78.90
2019-04-11T02:45:18.490Z,78.80
2019-04-11T02:47:39.563Z,78.80
2019-04-11T02:50:17.104Z,78.90
2019-04-11T02:52:52.874Z,79.20
2019-04-11T02:55:31.674Z,79.40
2019-04-11T02:58:08.097Z,79.70
2019-04-11T03:00:45.648Z,80.00
2019-04-11T03:03:23.221Z,80.10
2019-04-11T03:06:02.176Z,80.20
2019-04-11T03:08:38.803Z,80.90
2019-04-11T03:11:16.765Z,80.90
2019-04-11T03:13:54.846Z,81.20
2019-04-11T03:16:42.670Z,81.70
2019-04-11T03:19:22.563Z,82.30
2019-04-11T03:21:47.382Z,82.60
2019-04-11T03:24:24.458Z,83.00
2019-04-11T03:27:04.576Z,84.10
2019-04-11T03:29:38.681Z,83.80
2019-04-11T03:33:11.342Z,83.80
2019-04-11T03:38:00.071Z,84.70
2019-04-11T03:40:30.773Z,85.00
2019-04-11T03:43:01.231Z,85.20
2019-04-11T03:45:48.329Z,85.50
2019-04-11T03:48:20.346Z,86.00
2019-04-11T03:50:42.537Z,86.10
2019-04-11T03:53:21.513Z,86.80
2019-04-11T03:55:58.700Z,86.80
2019-04-11T03:58:35.104Z,87.70
2019-04-11T04:01:14.005Z,87.80
2019-04-11T04:03:51.888Z,88.70
2019-04-11T04:06:28.685Z,88.90
2019-04-11T04:09:06.595Z,89.20
2019-04-11T04:11:45.452Z,89.30
2019-04-11T04:14:37.696Z,90.20
2019-04-11T04:17:43.571Z,90.60
2019-04-11T04:20:39.419Z,90.40
2019-04-11T04:23:38.894Z,90.40
2019-04-11T04:26:16.879Z,90.50
2019-04-11T04:28:55.386Z,90.60
2019-04-11T04:31:32.887Z,90.70
2019-04-11T04:34:09.386Z,90.60
2019-04-11T04:36:47.297Z,90.60
2019-04-11T04:39:24.863Z,90.50
2019-04-11T04:42:09.261Z,90.50
2019-04-11T04:44:40.386Z,90.20
2019-04-11T04:47:22.144Z,90.20
2019-04-11T04:49:54.379Z,89.90
2019-04-11T04:52:32.501Z,89.50
2019-04-11T04:55:10.591Z,89.10
2019-04-11T04:57:46.499Z,89.10
2019-04-11T05:00:25.430Z,89.00
2019-04-11T05:03:02.195Z,88.80
2019-04-11T05:05:39.059Z,88.60
2019-04-11T05:08:16.689Z,88.40
2019-04-11T05:10:55.659Z,88.50
2019-04-11T05:13:32.343Z,88.60
2019-04-11T05:16:17.282Z,88.30
2019-04-11T05:18:46.764Z,88.00
2019-04-11T05:21:25.350Z,87.40
2019-04-11T05:24:02.071Z,86.90
2019-04-11T05:26:39.685Z,86.40
2019-04-11T05:29:17.421Z,85.60
2019-04-11T05:31:54.702Z,85.10
2019-04-11T05:34:32.787Z,84.50
2019-04-11T05:37:09.291Z,84.20
2019-04-11T05:39:46.827Z,83.70
2019-04-11T05:42:26.958Z,83.10
2019-04-11T05:45:01.822Z,83.00
2019-04-11T05:47:39.392Z,82.30
2019-04-11T05:50:45.442Z,82.10
2019-04-11T05:53:21.111Z,81.30
2019-04-11T05:55:57.468Z,81.00
2019-04-11T05:58:36.625Z,80.90
2019-04-11T06:01:18.286Z,80.30
2019-04-11T06:03:58.669Z,79.80
2019-04-11T06:06:44.375Z,78.60
2019-04-11T06:09:30.368Z,77.80
2019-04-11T06:12:41.644Z,77.10
2019-04-11T06:15:23.637Z,77.00
2019-04-11T06:18:02.815Z,76.90
2019-04-11T06:20:47.218Z,76.60
2019-04-11T06:23:43.453Z,75.90
2019-04-11T06:26:38.718Z,75.50
2019-04-11T06:29:24.975Z,74.80
2019-04-11T06:32:24.835Z,74.40
2019-04-11T06:35:08.054Z,74.40
2019-04-11T06:38:12.767Z,73.40
2019-04-11T06:40:59.933Z,72.60
2019-04-11T06:43:52.117Z,72.10
2019-04-11T06:46:54.075Z,71.60
2019-04-11T06:49:36.366Z,71.50
2019-04-11T06:52:14.847Z,71.00
2019-04-11T06:55:10.843Z,70.60
2019-04-11T06:57:48.167Z,70.10
2019-04-11T07:00:25.786Z,68.90
2019-04-11T07:03:03.737Z,68.30
2019-04-11T07:05:41.267Z,67.90
2019-04-11T07:08:20.360Z,67.70
2019-04-11T07:11:02.951Z,66.80
2019-04-11T07:13:49.780Z,66.30
2019-04-11T07:16:27.603Z,66.20
2019-04-11T07:19:23.011Z,65.90
2019-04-11T07:22:00.504Z,65.60
2019-04-11T07:24:57.366Z,65.30
2019-04-11T07:27:36.646Z,65.30
2019-04-11T07:30:33.238Z,64.80
2019-04-11T07:33:28.898Z,64.80
2019-04-11T07:36:24.452Z,65.20
2019-04-11T07:39:09.943Z,65.20
2019-04-11T07:42:06.947Z,64.80
2019-04-11T07:44:43.143Z,64.60
2019-04-11T07:47:29.523Z,65.20
2019-04-11T07:50:07.931Z,64.80
2019-04-11T07:52:50.033Z,63.80
2019-04-11T07:55:27.937Z,62.30
2019-04-11T07:58:24.012Z,62.50
2019-04-11T08:01:24.859Z,61.10
2019-04-11T08:04:19.964Z,59.50
2019-04-11T08:07:13.176Z,60.00
2019-04-11T08:09:57.152Z,59.50
2019-04-11T08:12:34.179Z,60.40
2019-04-11T08:15:46.047Z,60.90
2019-04-11T08:18:59.320Z,58.50
2019-04-11T08:22:00.860Z,58.40
2019-04-11T08:24:48.969Z,58.80
2019-04-11T08:27:54.112Z,58.50
2019-04-11T08:30:20.508Z,58.80
2019-04-11T08:33:00.306Z,58.10
2019-04-11T08:35:54.051Z,56.60
2019-04-11T08:38:32.195Z,53.90
2019-04-11T08:41:21.721Z,52.10
2019-04-11T08:43:59.448Z,51.00
2019-04-11T08:46:39.573Z,50.60
2019-04-11T08:49:29.918Z,52.10
2019-04-11T08:52:09.794Z,51.30
2019-04-11T08:55:06.191Z,49.40
2019-04-11T08:57:49.970Z,46.40
2019-04-11T09:00:38.614Z,47.20
2019-04-11T09:03:23.902Z,44.50
2019-04-11T09:06:14.685Z,45.40
2019-04-11T09:09:20.901Z,46.20
2019-04-11T09:12:00.446Z,41.80
2019-04-11T09:15:05.947Z,41.60
2019-04-11T09:17:58.861Z,42.30
2019-04-11T09:20:46.160Z,42.50
2019-04-11T09:23:25.921Z,43.30
2019-04-11T09:26:32.010Z,42.10
2019-04-11T09:29:08.700Z,41.30
2019-04-11T09:32:07.755Z,41.70
2019-04-11T09:34:50.584Z,41.50
2019-04-11T09:37:33.922Z,40.90
2019-04-11T09:40:30.212Z,40.40
2019-04-11T09:43:26.478Z,40.80
2019-04-11T09:46:33.048Z,39.60
2019-04-11T09:49:24.863Z,38.70
2019-04-11T09:52:22.745Z,40.30
2019-04-11T09:55:12.969Z,40.90
2019-04-11T09:57:54.637Z,40.90
2019-04-11T10:00:59.493Z,40.90
2019-04-11T10:03:36.921Z,40.90
2019-04-11T10:06:36.750Z,41.90
2019-04-11T10:09:13.791Z,41.70
2019-04-11T10:12:09.960Z,41.50
2019-04-11T10:14:50.147Z,40.60
2019-04-11T10:17:48.567Z,40.20
2019-04-11T10:20:26.814Z,40.50
2019-04-11T10:23:22.954Z,39.60
2019-04-11T10:26:03.530Z,39.10
2019-04-11T10:29:00.162Z,39.20
2019-04-11T10:31:38.942Z,39.40
2019-04-11T10:34:35.427Z,39.50
2019-04-11T10:37:15.869Z,39.60
2019-04-11T10:40:01.833Z,39.20
2019-04-11T10:42:39.046Z,39.50
2019-04-11T10:45:35.013Z,39.10
2019-04-11T10:48:13.794Z,38.60
2019-04-11T10:51:11.377Z,38.30
2019-04-11T10:53:49.874Z,38.20
2019-04-11T10:56:47.575Z,38.50
2019-04-11T10:59:27.970Z,38.30
2019-04-11T11:02:12.663Z,38.30
2019-04-11T11:04:52.629Z,38.20
2019-04-11T11:07:32.892Z,37.70
2019-04-11T11:10:15.775Z,36.90
2019-04-11T11:13:19.429Z,36.50
2019-04-11T11:16:00.071Z,36.30
2019-04-11T11:19:24.451Z,36.10
2019-04-11T11:21:37.226Z,36.30
2019-04-11T11:24:31.648Z,34.80
2019-04-11T11:27:09.431Z,35.00
2019-04-11T11:30:12.732Z,35.70
2019-04-11T11:32:50.150Z,35.70
2019-04-11T11:36:01.176Z,35.30
2019-04-11T11:38:36.269Z,35.10
2019-04-11T11:41:32.364Z,33.70
2019-04-11T11:44:11.664Z,32.10
2019-04-11T11:47:05.477Z,31.40
2019-04-11T11:49:51.932Z,31.00
2019-04-11T11:52:41.221Z,31.20
2019-04-11T11:55:21.849Z,32.70
2019-04-11T11:58:16.797Z,34.00
2019-04-11T12:00:52.149Z,35.00
2019-04-11T12:03:59.340Z,36.10
2019-04-11T12:06:33.347Z,36.50
2019-04-11T12:09:30.734Z,38.00
2019-04-11T12:12:13.560Z,38.10
2019-04-11T12:15:09.745Z,39.10
2019-04-11T12:18:01.777Z,39.70
2019-04-11T12:20:46.344Z,40.10
2019-04-11T12:23:43.656Z,40.70
2019-04-11T12:26:12.536Z,40.50
2019-04-11T12:29:06.687Z,40.30
2019-04-11T12:31:48.093Z,40.60
2019-04-11T12:34:36.723Z,40.00
2019-04-11T12:37:23.442Z,39.90
2019-04-11T12:40:22.642Z,39.80
2019-04-11T12:43:01.874Z,39.80
2019-04-11T12:45:57.881Z,39.50
2019-04-11T12:48:40.089Z,38.40
2019-04-11T12:51:23.055Z,39.00
2019-04-11T12:54:00.576Z,39.10
2019-04-11T12:56:54.685Z,39.10
2019-04-11T12:59:32.343Z,38.70
2019-04-11T13:02:28.478Z,38.80
2019-04-11T13:05:07.207Z,39.20
2019-04-11T13:07:53.021Z,40.10
2019-04-11T13:10:32.940Z,40.00
2019-04-11T13:13:28.390Z,39.70
2019-04-11T13:16:12.770Z,38.90
2019-04-11T13:19:07.571Z,38.60
2019-04-11T13:21:57.830Z,38.80
2019-04-11T13:24:55.856Z,38.40
2019-04-11T13:27:37.776Z,38.60
2019-04-11T13:30:33.934Z,38.10
2019-04-11T13:33:17.640Z,37.00
2019-04-11T13:36:16.498Z,37.30
2019-04-11T13:38:54.225Z,37.50
2019-04-11T13:41:50.309Z,37.80
2019-04-11T13:44:30.922Z,37.50
2019-04-11T13:47:26.648Z,36.80
2019-04-11T13:50:16.286Z,37.00
2019-04-11T13:53:14.333Z,37.10
2019-04-11T13:55:51.928Z,38.10
2019-04-11T13:59:00.708Z,38.70
2019-04-11T14:01:39.418Z,38.80
2019-04-11T14:04:22.754Z,38.70
2019-04-11T14:07:00.241Z,38.70
2019-04-11T14:09:42.862Z,39.10
2019-04-11T14:12:20.358Z,40.20
2019-04-11T14:15:06.356Z,41.20
2019-04-11T14:17:58.484Z,42.00
2019-04-11T14:20:41.809Z,42.40
2019-04-11T14:23:34.232Z,42.30
2019-04-11T14:26:30.639Z,42.90
2019-04-11T14:29:13.605Z,43.20
2019-04-11T14:31:54.689Z,43.90
2019-04-11T14:35:03.293Z,43.60
2019-04-11T14:37:47.342Z,43.00
2019-04-11T14:41:01.656Z,43.00
2019-04-11T14:43:40.516Z,43.20
2019-04-11T14:46:37.251Z,44.30
2019-04-11T14:49:16.085Z,45.30
2019-04-11T14:52:12.155Z,45.60
2019-04-11T14:54:51.756Z,45.70
2019-04-11T14:57:54.498Z,46.30
2019-04-11T15:00:34.059Z,46.80
2019-04-11T15:03:30.194Z,46.60
2019-04-11T15:06:36.290Z,46.30
2019-04-11T15:09:32.780Z,46.30
2019-04-11T15:12:19.414Z,45.80
2019-04-11T15:15:25.412Z,45.70
2019-04-11T15:18:04.812Z,45.60
2019-04-11T15:21:06.613Z,45.60
2019-04-11T15:23:44.782Z,45.80
2019-04-11T15:26:40.953Z,46.00
2019-04-11T15:29:26.173Z,45.80
2019-04-11T15:32:24.931Z,46.20
2019-04-11T15:35:08.511Z,47.00
2019-04-11T15:38:04.276Z,47.00
2019-04-11T15:40:45.083Z,47.10
2019-04-11T15:43:43.245Z,47.00
2019-04-11T15:46:24.007Z,46.50
2019-04-11T15:49:24.691Z,46.30
2019-04-11T15:52:01.215Z,47.00
2019-04-11T15:54:57.363Z,47.20
2019-04-11T15:57:44.350Z,47.60
2019-04-11T16:00:43.653Z,48.10
2019-04-11T16:03:24.589Z,48.00
2019-04-11T16:06:19.082Z,48.20
2019-04-11T16:08:59.497Z,48.70
2019-04-11T16:11:56.318Z,48.70
2019-04-11T16:14:38.276Z,49.30
2019-04-11T16:17:42.409Z,49.20
2019-04-11T16:20:25.950Z,49.50
2019-04-11T16:23:25.837Z,48.90
2019-04-11T16:26:01.188Z,49.10
2019-04-11T16:29:08.667Z,48.80
2019-04-11T16:31:45.543Z,48.50
2019-04-11T16:34:47.896Z,48.30
2019-04-11T16:37:18.576Z,48.50
2019-04-11T16:40:14.465Z,48.50
2019-04-11T16:42:59.071Z,48.00
2019-04-11T16:45:54.799Z,48.00
2019-04-11T16:48:30.400Z,48.10
2019-04-11T16:51:07.954Z,48.30
2019-04-11T16:53:45.549Z,48.30
2019-04-11T16:56:23.044Z,48.40
2019-04-11T16:59:00.651Z,48.20
2019-04-11T17:01:38.063Z,47.60
2019-04-11T17:04:15.580Z,47.80
2019-04-11T17:07:00.356Z,48.10
2019-04-11T17:09:41.253Z,47.80
2019-04-11T17:12:20.199Z,47.70
2019-04-11T17:15:01.083Z,48.40
2019-04-11T17:17:37.718Z,48.60
2019-04-11T17:20:16.181Z,48.70
2019-04-11T17:22:54.790Z,49.20
2019-04-11T17:25:35.016Z,49.00
2019-04-11T17:28:12.819Z,48.90
2019-04-11T17:30:55.057Z,48.90
2019-04-11T17:33:30.136Z,49.30
2019-04-11T17:36:08.478Z,49.70
2019-04-11T17:38:46.645Z,49.60
2019-04-11T17:41:24.519Z,50.20
2019-04-11T17:44:02.668Z,50.10
2019-04-11T17:46:40.782Z,50.50
2019-04-11T17:49:19.303Z,51.00
2019-04-11T17:51:57.280Z,51.30
2019-04-11T17:54:35.544Z,51.70
2019-04-11T17:57:14.006Z,52.10
2019-04-11T17:59:51.773Z,52.00
2019-04-11T18:02:30.625Z,52.20
2019-04-11T18:05:09.408Z,52.50
2019-04-11T18:07:49.941Z,52.60
2019-04-11T18:10:27.052Z,52.50
2019-04-11T18:13:06.871Z,52.40
2019-04-11T18:15:45.851Z,52.60
2019-04-11T18:18:26.927Z,53.00
2019-04-11T18:21:08.074Z,53.40
2019-04-11T18:23:49.910Z,53.80
2019-04-11T18:26:30.991Z,54.00
2019-04-11T18:29:08.743Z,54.20
2019-04-11T18:31:46.667Z,54.50
2019-04-11T18:34:24.220Z,55.00
2019-04-11T18:37:02.636Z,55.10
2019-04-11T18:39:42.957Z,55.20
2019-04-11T18:42:20.508Z,55.40
2019-04-11T18:44:58.094Z,55.60
2019-04-11T18:47:35.853Z,55.80
2019-04-11T18:50:13.704Z,55.50
2019-04-11T18:52:51.320Z,55.30
2019-04-11T18:55:29.130Z,55.50
2019-04-11T18:58:06.884Z,55.30
2019-04-11T19:00:44.713Z,55.10
2019-04-11T19:03:23.076Z,55.20
2019-04-11T19:06:00.928Z,55.30
2019-04-11T19:08:38.607Z,55.60
2019-04-11T19:11:32.134Z,55.30
2019-04-11T19:14:11.228Z,55.40
2019-04-11T19:16:51.979Z,55.60
2019-04-11T19:19:29.755Z,55.60
2019-04-11T19:22:07.634Z,55.70
2019-04-11T19:24:46.234Z,55.70
2019-04-11T19:27:24.136Z,55.80
2019-04-11T19:30:02.995Z,55.80
2019-04-11T19:32:40.647Z,55.90
2019-04-11T19:35:18.138Z,55.90
2019-04-11T19:37:55.716Z,56.20
2019-04-11T19:40:33.248Z,56.40
2019-04-11T19:43:10.801Z,56.20
2019-04-11T19:45:50.040Z,56.10
2019-04-11T19:48:25.847Z,56.30
2019-04-11T19:51:03.891Z,56.50
2019-04-11T19:53:41.381Z,56.70
2019-04-11T19:56:47.588Z,56.80
2019-04-11T19:59:25.055Z,57.10
2019-04-11T20:02:02.549Z,57.20
2019-04-11T20:04:40.061Z,57.40
2019-04-11T20:07:17.549Z,57.30
2019-04-11T20:09:55.056Z,57.40
2019-04-11T20:12:32.530Z,57.40
2019-04-11T20:15:10.139Z,57.40
2019-04-11T20:17:51.086Z,57.40
2019-04-11T20:20:25.369Z,57.20
2019-04-11T20:23:02.846Z,57.30
2019-04-11T20:25:40.369Z,57.30
2019-04-11T20:28:19.707Z,57.20
2019-04-11T20:30:55.387Z,57.40
2019-04-11T20:33:34.687Z,57.10
2019-04-11T20:36:11.183Z,57.10
2019-04-11T20:38:47.879Z,57.00
2019-04-11T20:41:25.364Z,57.00
2019-04-11T20:44:02.831Z,57.00
2019-04-11T20:46:40.348Z,57.00
2019-04-11T20:49:17.842Z,57.10
2019-04-11T20:51:55.345Z,57.10
2019-04-11T20:54:32.838Z,57.10
2019-04-11T20:57:12.058Z,57.20
2019-04-11T20:59:51.070Z,57.20
2019-04-11T21:02:29.186Z,57.40
2019-04-11T21:05:06.193Z,57.40
2019-04-11T21:07:43.696Z,57.40
2019-04-11T21:10:21.200Z,57.00
2019-04-11T21:13:07.245Z,56.90
2019-04-11T21:15:42.359Z,57.00
2019-04-11T21:18:19.836Z,56.50
2019-04-11T21:20:57.336Z,56.40
2019-04-11T21:23:34.808Z,56.10
2019-04-11T21:26:12.348Z,55.40
2019-04-11T21:28:49.824Z,54.50
2019-04-11T21:31:30.814Z,54.10
2019-04-11T21:34:04.833Z,54.30
2019-04-11T21:36:42.341Z,54.10
2019-04-11T21:39:19.827Z,54.30
2019-04-11T21:41:57.329Z,54.40
2019-04-11T21:44:36.770Z,54.40
2019-04-11T21:47:12.322Z,54.40
2019-04-11T21:49:49.802Z,54.40
2019-04-11T21:52:27.313Z,54.30
2019-04-11T21:55:05.167Z,54.10
2019-04-11T21:57:42.676Z,54.30
2019-04-11T22:00:26.638Z,54.10
2019-04-11T22:03:06.598Z,54.40
2019-04-11T22:05:41.982Z,54.70
2019-04-11T22:08:19.487Z,54.80
2019-04-11T22:10:56.980Z,54.50
2019-04-11T22:13:34.468Z,54.40
2019-04-11T22:16:14.218Z,54.30
2019-04-11T22:18:49.462Z,54.50
2019-04-11T22:21:26.974Z,54.80
2019-04-11T22:24:04.444Z,55.10
2019-04-11T22:26:41.949Z,55.50
2019-04-11T22:29:19.430Z,55.70
2019-04-11T22:31:56.988Z,56.10
2019-04-11T22:34:41.582Z,56.50
2019-04-11T22:37:19.069Z,56.80
2019-04-11T22:39:56.536Z,57.30
2019-04-11T22:42:34.053Z,57.40
2019-04-11T22:45:11.537Z,57.40
2019-04-11T22:47:49.053Z,57.50
2019-04-11T22:50:26.520Z,57.60
2019-04-11T22:53:04.017Z,57.70
2019-04-11T22:55:41.889Z,57.80
2019-04-11T22:58:19.004Z,58.10
2019-04-11T23:00:56.467Z,58.50
2019-04-11T23:03:46.971Z,59.20
2019-04-11T23:06:21.363Z,59.60
2019-04-11T23:08:58.828Z,60.00
2019-04-11T23:11:36.327Z,60.50
2019-04-11T23:14:15.950Z,61.00
2019-04-11T23:16:51.332Z,61.80
2019-04-11T23:19:28.812Z,62.30
2019-04-11T23:22:06.315Z,62.90
2019-04-11T23:24:43.806Z,63.50
2019-04-11T23:27:21.385Z,64.60
2019-04-11T23:29:58.900Z,64.00
2019-04-11T23:32:36.382Z,64.40
2019-04-11T23:35:13.855Z,64.40
2019-04-11T23:37:52.125Z,64.70
2019-04-11T23:40:29.429Z,65.20
2019-04-11T23:43:06.987Z,65.50
2019-04-11T23:45:44.408Z,65.60
2019-04-11T23:48:24.068Z,65.60
2019-04-11T23:50:59.383Z,66.30
2019-04-11T23:53:36.893Z,67.40
2019-04-11T23:56:14.387Z,66.70
2019-04-11T23:58:51.886Z,67.30
